Time;durP1;ratioP1;P1;durP2;ratioP2;P2;SDS_P1;SDS_P2;PMS_P1;PMS_P2;Temp;Humidity;BMP_temperature;BMP_pressure;BME280_temperature;BME280_humidity;BME280_pressure;Samples;Min_cycle;Max_cycle;Signal;HPM_P1;HPM_P2
2023/07/14 00:01:27;;;;;;;;;;;14.80;99.90;;;;;;5059543;28;19925;-86
2023/07/14 00:03:53;;;;;;;;;;;15.40;99.90;;;;;;5093322;28;20383;-87
2023/07/14 00:06:20;;;;;;;;;;;15.30;99.90;;;;;;5076296;28;19968;-86
2023/07/14 00:08:46;;;;;;;;;;;15.30;99.90;;;;;;5089155;28;20010;-87
2023/07/14 00:11:20;;;;;;;;;;;15.30;99.90;;;;;;5058755;28;19932;-87
2023/07/14 00:13:50;;;;;;;;;;;15.30;99.90;;;;;;5093290;28;19993;-87
2023/07/14 00:16:21;;;;;;;;;;;15.20;99.90;;;;;;5109375;28;19975;-86
2023/07/14 00:18:49;;;;;;;;;;;15.10;99.90;;;;;;5092619;28;19942;-86
2023/07/14 00:21:25;;;;;;;;;;;15.10;99.90;;;;;;5075750;28;20295;-86
2023/07/14 00:23:58;;;;;;;;;;;14.50;99.90;;;;;;5076186;28;19924;-86
2023/07/14 00:26:24;;;;;;;;;;;15.00;99.90;;;;;;5114553;28;19912;-86
2023/07/14 00:28:50;;;;;;;;;;;15.00;99.90;;;;;;5096793;28;20005;-86
2023/07/14 00:31:22;;;;;;;;;;;15.10;99.90;;;;;;5109326;28;19939;-86
2023/07/14 00:33:57;;;;;;;;;;;15.00;99.90;;;;;;5137609;27;19971;-86
2023/07/14 00:36:25;;;;;;;;;;;15.00;99.90;;;;;;5121495;28;20317;-86
2023/07/14 00:38:51;;;;;;;;;;;14.90;99.90;;;;;;5101085;28;19959;-86
2023/07/14 00:41:21;;;;;;;;;;;14.80;99.90;;;;;;5083433;28;20288;-86
2023/07/14 00:43:48;;;;;;;;;;;14.80;99.90;;;;;;5077977;28;20035;-86
2023/07/14 00:46:26;;;;;;;;;;;14.30;99.90;;;;;;5075662;28;20388;-86
2023/07/14 00:48:54;;;;;;;;;;;14.80;99.90;;;;;;5109622;28;20346;-86
2023/07/14 00:51:22;;;;;;;;;;;14.70;99.90;;;;;;5091355;28;20433;-85
2023/07/14 00:53:52;;;;;;;;;;;14.70;99.90;;;;;;5076232;28;20014;-86
2023/07/14 00:56:38;;;;;;;;;;;14.70;99.90;;;;;;5091304;28;20335;-86
2023/07/14 00:59:13;;;;;;;;;;;14.70;99.90;;;;;;5089052;28;19985;-86
2023/07/14 01:01:57;;;;;;;;;;;14.70;99.90;;;;;;5109317;28;19924;-86
2023/07/14 01:04:23;;;;;;;;;;;14.70;99.90;;;;;;5100744;28;19938;-86
2023/07/14 01:06:49;;;;;;;;;;;14.70;99.90;;;;;;5092271;28;20027;-86
2023/07/14 01:09:17;;;;;;;;;;;14.60;99.90;;;;;;5075188;28;19924;-86
2023/07/14 01:11:49;;;;;;;;;;;14.00;99.90;;;;;;5091346;28;19924;-86
2023/07/14 01:14:16;;;;;;;;;;;14.60;99.90;;;;;;5075558;28;19969;-86
2023/07/14 01:16:42;;;;;;;;;;;14.50;99.90;;;;;;5075062;28;19924;-87
2023/07/14 01:19:14;;;;;;;;;;;14.50;99.90;;;;;;5075116;28;19928;-86
2023/07/14 01:21:40;;;;;;;;;;;14.50;99.90;;;;;;5092210;28;19994;-87
2023/07/14 01:24:10;;;;;;;;;;;14.50;99.90;;;;;;5092017;28;20284;-86
2023/07/14 01:26:57;;;;;;;;;;;14.50;99.90;;;;;;5066814;28;19924;-86
2023/07/14 01:29:23;;;;;;;;;;;14.50;99.90;;;;;;5075479;28;19969;-86
2023/07/14 01:31:48;;;;;;;;;;;14.50;99.90;;;;;;5091937;28;19967;-86
2023/07/14 01:34:15;;;;;;;;;;;14.40;99.90;;;;;;5075465;28;20453;-86
2023/07/14 01:36:44;;;;;;;;;;;14.40;99.90;;;;;;5091696;28;19924;-86
2023/07/14 01:39:10;;;;;;;;;;;14.40;99.90;;;;;;5058583;28;19924;-87
2023/07/14 01:41:36;;;;;;;;;;;14.40;99.90;;;;;;5107763;28;20269;-86
2023/07/14 01:44:03;;;;;;;;;;;14.60;99.90;;;;;;5074541;28;19953;-86
2023/07/14 01:46:29;;;;;;;;;;;14.30;99.90;;;;;;5091786;28;20012;-87
2023/07/14 01:48:58;;;;;;;;;;;14.30;99.90;;;;;;5091789;28;19928;-86
2023/07/14 01:51:25;;;;;;;;;;;14.30;99.90;;;;;;5125665;28;19928;-86
2023/07/14 01:54:09;;;;;;;;;;;14.30;99.90;;;;;;5125980;28;20429;-86
2023/07/14 01:56:38;;;;;;;;;;;14.30;99.90;;;;;;5105325;28;19932;-86
2023/07/14 01:59:10;;;;;;;;;;;14.20;99.90;;;;;;5108401;28;20360;-86
2023/07/14 02:01:38;;;;;;;;;;;14.20;99.90;;;;;;5091765;28;19973;-86
2023/07/14 02:04:04;;;;;;;;;;;14.20;99.90;;;;;;5093490;28;19963;-87
2023/07/14 02:06:31;;;;;;;;;;;14.20;99.90;;;;;;5095401;28;19971;-87
2023/07/14 02:08:58;;;;;;;;;;;14.20;99.90;;;;;;5078887;28;20275;-88
2023/07/14 02:11:26;;;;;;;;;;;14.20;99.90;;;;;;5111714;28;19928;-86
2023/07/14 02:13:54;;;;;;;;;;;14.20;99.90;;;;;;5133444;27;20018;-87
2023/07/14 02:16:20;;;;;;;;;;;14.10;99.90;;;;;;5095336;28;19946;-86
2023/07/14 02:18:46;;;;;;;;;;;14.10;99.90;;;;;;5095127;28;20015;-86
2023/07/14 02:21:13;;;;;;;;;;;14.10;99.90;;;;;;5078031;28;19928;-86
2023/07/14 02:23:39;;;;;;;;;;;14.10;99.90;;;;;;5078219;28;20015;-88
2023/07/14 02:26:25;;;;;;;;;;;14.10;99.90;;;;;;5094248;28;19935;-87
2023/07/14 02:28:51;;;;;;;;;;;14.10;99.90;;;;;;5104350;27;19931;-86
2023/07/14 02:31:23;;;;;;;;;;;14.10;99.90;;;;;;5060770;28;19928;-86
2023/07/14 02:33:50;;;;;;;;;;;14.10;99.90;;;;;;5094859;28;19931;-86
2023/07/14 02:36:16;;;;;;;;;;;14.10;99.90;;;;;;5094795;28;20287;-87
2023/07/14 02:38:42;;;;;;;;;;;14.10;99.90;;;;;;5094114;28;19924;-86
2023/07/14 02:41:12;;;;;;;;;;;14.10;99.90;;;;;;5093211;28;19931;-86
2023/07/14 02:43:38;;;;;;;;;;;14.10;99.90;;;;;;5094750;28;19924;-86
2023/07/14 02:46:08;;;;;;;;;;;14.10;99.90;;;;;;5077552;28;19946;-86
2023/07/14 02:48:34;;;;;;;;;;;14.10;99.90;;;;;;5111106;28;19924;-86
2023/07/14 02:50:59;;;;;;;;;;;14.10;99.90;;;;;;5077269;28;19924;-87
2023/07/14 02:53:25;;;;;;;;;;;14.10;99.90;;;;;;5077768;28;19977;-86
2023/07/14 02:55:51;;;;;;;;;;;14.10;99.90;;;;;;5076576;28;20287;-86
2023/07/14 02:58:17;;;;;;;;;;;14.00;99.90;;;;;;5111291;28;19935;-87
2023/07/14 03:00:43;;;;;;;;;;;14.00;99.90;;;;;;5092348;28;19924;-87
2023/07/14 03:03:09;;;;;;;;;;;14.00;99.90;;;;;;5094403;28;19931;-86
2023/07/14 03:05:35;;;;;;;;;;;13.90;99.90;;;;;;5060647;28;19925;-86
2023/07/14 03:08:01;;;;;;;;;;;13.90;99.90;;;;;;5127906;27;19924;-86
2023/07/14 03:10:27;;;;;;;;;;;13.90;99.90;;;;;;5076807;28;19932;-86
2023/07/14 03:12:53;;;;;;;;;;;13.90;99.90;;;;;;5127482;27;19935;-86
2023/07/14 03:15:22;;;;;;;;;;;13.80;99.90;;;;;;5077187;28;19942;-86
2023/07/14 03:17:50;;;;;;;;;;;13.80;99.90;;;;;;5087099;28;19924;-86
2023/07/14 03:20:16;;;;;;;;;;;13.80;99.90;;;;;;5076756;28;20433;-86
2023/07/14 03:22:43;;;;;;;;;;;13.80;99.90;;;;;;5076936;28;19924;-86
2023/07/14 03:25:09;;;;;;;;;;;13.80;99.90;;;;;;5059876;28;19924;-87
2023/07/14 03:27:35;;;;;;;;;;;13.80;99.90;;;;;;5092851;28;19932;-86
2023/07/14 03:30:00;;;;;;;;;;;13.70;99.90;;;;;;5110551;28;19924;-86
2023/07/14 03:32:26;;;;;;;;;;;13.70;99.90;;;;;;5110570;28;19927;-86
2023/07/14 03:34:52;;;;;;;;;;;13.70;99.90;;;;;;5076846;28;19990;-86
2023/07/14 03:37:17;;;;;;;;;;;13.70;99.90;;;;;;5093283;28;20394;-87
2023/07/14 03:39:43;;;;;;;;;;;13.70;99.90;;;;;;5094468;28;19931;-86
2023/07/14 03:42:09;;;;;;;;;;;13.60;99.90;;;;;;5081340;28;19923;-87
2023/07/14 03:44:34;;;;;;;;;;;13.60;99.90;;;;;;5084263;28;19912;-88
2023/07/14 03:47:03;;;;;;;;;;;13.60;99.90;;;;;;5135397;27;19928;-88
2023/07/14 03:49:29;;;;;;;;;;;13.60;99.90;;;;;;5111947;28;19924;-87
2023/07/14 03:51:54;;;;;;;;;;;13.50;99.90;;;;;;5093364;28;19963;-87
2023/07/14 03:54:20;;;;;;;;;;;13.50;99.90;;;;;;5121279;28;19913;-86
2023/07/14 03:56:49;;;;;;;;;;;13.50;99.90;;;;;;5134016;27;19924;-86
2023/07/14 03:59:15;;;;;;;;;;;13.30;99.90;;;;;;5081755;28;19931;-86
2023/07/14 04:01:41;;;;;;;;;;;13.70;99.90;;;;;;5080058;28;19932;-86
2023/07/14 04:04:06;;;;;;;;;;;13.60;99.90;;;;;;5094940;28;19981;-87
2023/07/14 04:06:32;;;;;;;;;;;13.80;99.90;;;;;;5110553;28;20057;-86
2023/07/14 04:08:59;;;;;;;;;;;13.70;99.90;;;;;;5094645;28;20271;-87
2023/07/14 04:11:24;;;;;;;;;;;13.70;99.90;;;;;;5109065;28;20437;-86
2023/07/14 04:13:50;;;;;;;;;;;13.70;99.90;;;;;;5092963;28;19924;-86
2023/07/14 04:16:15;;;;;;;;;;;13.70;99.90;;;;;;5109923;28;19928;-86
2023/07/14 04:18:41;;;;;;;;;;;13.70;99.90;;;;;;5066186;28;19931;-86
2023/07/14 04:21:08;;;;;;;;;;;13.80;99.90;;;;;;5087426;28;19928;-86
2023/07/14 04:23:34;;;;;;;;;;;13.80;99.90;;;;;;5072828;28;19924;-86
2023/07/14 04:26:03;;;;;;;;;;;13.80;99.90;;;;;;5108593;28;19924;-88
2023/07/14 04:28:31;;;;;;;;;;;13.90;99.90;;;;;;5092726;28;19927;-87
2023/07/14 04:30:57;;;;;;;;;;;13.90;99.90;;;;;;5091075;28;20374;-87
2023/07/14 04:33:23;;;;;;;;;;;14.00;99.90;;;;;;5109768;28;20007;-86
2023/07/14 04:35:52;;;;;;;;;;;14.10;99.90;;;;;;5075977;28;19931;-86
2023/07/14 04:38:18;;;;;;;;;;;14.10;99.90;;;;;;5072083;28;19924;-86
2023/07/14 04:40:44;;;;;;;;;;;14.10;99.90;;;;;;5105295;28;20412;-86
2023/07/14 04:43:10;;;;;;;;;;;14.10;99.90;;;;;;5075576;28;20280;-87
2023/07/14 04:45:37;;;;;;;;;;;14.10;99.90;;;;;;5075883;28;20280;-86
2023/07/14 04:48:03;;;;;;;;;;;14.20;99.90;;;;;;5075281;28;19931;-86
2023/07/14 04:50:31;;;;;;;;;;;14.20;99.90;;;;;;5109432;28;19931;-87
2023/07/14 04:52:57;;;;;;;;;;;14.20;99.90;;;;;;5092972;28;19928;-86
2023/07/14 04:55:23;;;;;;;;;;;14.20;99.90;;;;;;5075483;28;20265;-86
2023/07/14 04:57:49;;;;;;;;;;;14.30;99.90;;;;;;5075220;28;19927;-86
2023/07/14 05:00:17;;;;;;;;;;;14.30;99.90;;;;;;5109593;28;19973;-86
2023/07/14 05:02:43;;;;;;;;;;;14.40;99.90;;;;;;5075319;28;19928;-86
2023/07/14 05:05:13;;;;;;;;;;;14.40;99.90;;;;;;5109418;28;19930;-87
2023/07/14 05:07:39;;;;;;;;;;;14.40;99.90;;;;;;5075402;28;19978;-86
2023/07/14 05:10:05;;;;;;;;;;;14.40;99.90;;;;;;5092210;28;19956;-87
2023/07/14 05:12:31;;;;;;;;;;;14.50;99.90;;;;;;5085052;28;20007;-86
2023/07/14 05:15:00;;;;;;;;;;;14.50;99.90;;;;;;5090342;28;19936;-86
2023/07/14 05:17:26;;;;;;;;;;;14.60;99.90;;;;;;5075127;28;19924;-86
2023/07/14 05:19:52;;;;;;;;;;;14.60;99.90;;;;;;5126540;28;19932;-87
2023/07/14 05:22:17;;;;;;;;;;;14.70;99.90;;;;;;5109297;28;20003;-86
2023/07/14 05:24:43;;;;;;;;;;;14.80;99.90;;;;;;5109349;28;20018;-86
2023/07/14 05:27:08;;;;;;;;;;;14.80;99.90;;;;;;5108624;28;19924;-86
2023/07/14 05:29:34;;;;;;;;;;;14.90;99.90;;;;;;5075127;28;20024;-86
2023/07/14 05:32:00;;;;;;;;;;;15.00;99.90;;;;;;5075365;28;19924;-86
2023/07/14 05:34:25;;;;;;;;;;;15.00;99.90;;;;;;5083033;28;20246;-86
2023/07/14 05:36:51;;;;;;;;;;;15.10;99.90;;;;;;5075334;28;19924;-86
2023/07/14 05:39:16;;;;;;;;;;;15.10;99.90;;;;;;5060866;28;20368;-86
2023/07/14 05:41:42;;;;;;;;;;;15.10;99.90;;;;;;5077609;28;19970;-87
2023/07/14 05:44:07;;;;;;;;;;;15.20;99.90;;;;;;5078449;28;20430;-86
2023/07/14 05:46:33;;;;;;;;;;;15.20;99.90;;;;;;5078935;28;19924;-86
2023/07/14 05:48:59;;;;;;;;;;;15.30;99.90;;;;;;5095456;28;20371;-86
2023/07/14 05:51:24;;;;;;;;;;;15.30;99.90;;;;;;5112513;28;19924;-86
2023/07/14 05:53:50;;;;;;;;;;;15.40;99.90;;;;;;5079107;28;19924;-86
2023/07/14 05:56:16;;;;;;;;;;;15.40;99.90;;;;;;5077945;28;19928;-86
2023/07/14 05:58:42;;;;;;;;;;;15.40;99.90;;;;;;5062297;28;19924;-86
2023/07/14 06:01:07;;;;;;;;;;;15.50;99.90;;;;;;5095588;28;19931;-86
2023/07/14 06:03:33;;;;;;;;;;;15.50;99.90;;;;;;5062086;28;19924;-87
2023/07/14 06:05:59;;;;;;;;;;;15.60;99.90;;;;;;5067241;28;19924;-86
2023/07/14 06:08:24;;;;;;;;;;;15.70;99.90;;;;;;5077664;28;19924;-86
2023/07/14 06:10:51;;;;;;;;;;;15.70;99.90;;;;;;5094668;28;19928;-86
2023/07/14 06:13:17;;;;;;;;;;;15.80;99.90;;;;;;5095072;28;20264;-87
2023/07/14 06:15:48;;;;;;;;;;;15.90;99.90;;;;;;5078491;28;19977;-88
2023/07/14 06:18:13;;;;;;;;;;;15.90;99.90;;;;;;5077931;28;19924;-86
2023/07/14 06:20:39;;;;;;;;;;;16.00;99.90;;;;;;5078674;28;19938;-86
2023/07/14 06:23:05;;;;;;;;;;;16.00;99.90;;;;;;5111956;28;20015;-87
2023/07/14 06:25:30;;;;;;;;;;;16.10;99.90;;;;;;5111968;28;20276;-86
2023/07/14 06:27:57;;;;;;;;;;;16.10;99.90;;;;;;5077812;28;19928;-86
2023/07/14 06:30:25;;;;;;;;;;;16.20;99.90;;;;;;5111883;28;19924;-85
2023/07/14 06:32:51;;;;;;;;;;;16.30;99.90;;;;;;5077877;28;20502;-86
2023/07/14 06:35:19;;;;;;;;;;;16.40;99.90;;;;;;5094892;28;19928;-86
2023/07/14 06:37:45;;;;;;;;;;;16.40;99.90;;;;;;5128720;27;19924;-86
2023/07/14 06:40:11;;;;;;;;;;;16.40;99.90;;;;;;5111794;28;19973;-86
2023/07/14 06:42:37;;;;;;;;;;;16.50;99.90;;;;;;5093766;28;19973;-86
2023/07/14 06:45:08;;;;;;;;;;;16.60;99.90;;;;;;5075003;28;19924;-86
2023/07/14 06:47:34;;;;;;;;;;;16.70;99.90;;;;;;5077537;28;19931;-86
2023/07/14 06:50:00;;;;;;;;;;;16.70;99.90;;;;;;5093947;28;19924;-86
2023/07/14 06:52:26;;;;;;;;;;;16.80;99.90;;;;;;5094049;28;19930;-85
2023/07/14 06:54:52;;;;;;;;;;;17.00;99.90;;;;;;5061121;28;19924;-86
2023/07/14 06:57:18;;;;;;;;;;;16.90;99.90;;;;;;5076491;28;20045;-86
2023/07/14 06:59:44;;;;;;;;;;;17.00;99.90;;;;;;5094393;28;19928;-86
2023/07/14 07:02:10;;;;;;;;;;;17.00;99.90;;;;;;5103771;28;19924;-86
2023/07/14 07:04:36;;;;;;;;;;;17.10;99.90;;;;;;5117574;28;19968;-87
2023/07/14 07:07:02;;;;;;;;;;;17.10;99.90;;;;;;5135162;28;19923;-87
2023/07/14 07:09:28;;;;;;;;;;;17.10;99.90;;;;;;5114626;28;19907;-86
2023/07/14 07:11:53;;;;;;;;;;;17.20;99.90;;;;;;5092439;28;19923;-86
2023/07/14 07:14:19;;;;;;;;;;;17.20;99.90;;;;;;5076034;28;19924;-86
2023/07/14 07:16:44;;;;;;;;;;;17.30;99.90;;;;;;5108716;28;19924;-87
2023/07/14 07:19:10;;;;;;;;;;;17.30;99.90;;;;;;5074941;28;19924;-87
2023/07/14 07:21:36;;;;;;;;;;;17.40;99.90;;;;;;5085306;28;19971;-86
2023/07/14 07:24:05;;;;;;;;;;;17.40;99.90;;;;;;5081732;28;19977;-86
2023/07/14 07:26:30;;;;;;;;;;;17.50;99.90;;;;;;5090806;28;19940;-86
2023/07/14 07:28:56;;;;;;;;;;;17.60;99.90;;;;;;5126833;27;19944;-86
2023/07/14 07:31:22;;;;;;;;;;;17.60;99.90;;;;;;5076616;28;20287;-85
2023/07/14 07:33:47;;;;;;;;;;;17.70;99.90;;;;;;5110803;28;19924;-86
2023/07/14 07:36:17;;;;;;;;;;;17.80;99.90;;;;;;5093576;28;19924;-86
2023/07/14 07:38:44;;;;;;;;;;;17.80;99.90;;;;;;5093513;28;19978;-86
2023/07/14 07:41:09;;;;;;;;;;;17.90;99.90;;;;;;5092297;28;19947;-85
2023/07/14 07:43:35;;;;;;;;;;;18.00;99.90;;;;;;5093393;28;19924;-86
2023/07/14 07:46:00;;;;;;;;;;;18.00;99.90;;;;;;5076216;28;20364;-87
2023/07/14 07:48:26;;;;;;;;;;;18.10;99.90;;;;;;5093288;28;19935;-86
2023/07/14 07:50:52;;;;;;;;;;;18.10;99.90;;;;;;5109817;28;19924;-86
2023/07/14 07:53:17;;;;;;;;;;;18.20;99.90;;;;;;5076462;28;19930;-86
2023/07/14 07:55:50;;;;;;;;;;;18.30;99.90;;;;;;5059525;28;19924;-86
2023/07/14 07:58:16;;;;;;;;;;;18.40;99.90;;;;;;5093347;28;20386;-86
2023/07/14 08:00:43;;;;;;;;;;;18.40;99.90;;;;;;5076396;28;19928;-87
2023/07/14 08:03:08;;;;;;;;;;;18.50;99.90;;;;;;5076422;28;19924;-86
2023/07/14 08:05:35;;;;;;;;;;;18.60;99.90;;;;;;5093410;28;19924;-85
2023/07/14 08:08:00;;;;;;;;;;;18.70;99.90;;;;;;5093206;28;19932;-87
2023/07/14 08:10:26;;;;;;;;;;;18.80;99.90;;;;;;5085968;28;20300;-85
2023/07/14 08:12:52;;;;;;;;;;;18.90;99.90;;;;;;5088331;28;20280;-86
2023/07/14 08:15:18;;;;;;;;;;;18.80;99.90;;;;;;5066721;28;20352;-85
2023/07/14 08:17:56;;;;;;;;;;;18.80;99.90;;;;;;5055167;28;19924;-85
2023/07/14 08:20:21;;;;;;;;;;;18.80;99.90;;;;;;5102452;28;19924;-86
2023/07/14 08:22:47;;;;;;;;;;;18.80;99.90;;;;;;5109600;28;19973;-86
2023/07/14 08:25:12;;;;;;;;;;;18.80;99.90;;;;;;5092320;28;20292;-86
2023/07/14 08:27:38;;;;;;;;;;;18.80;99.90;;;;;;5108926;28;20015;-87
2023/07/14 08:30:06;;;;;;;;;;;18.90;99.90;;;;;;5075707;28;19932;-84
2023/07/14 08:32:32;;;;;;;;;;;19.00;99.90;;;;;;5075109;28;20034;-87
2023/07/14 08:34:58;;;;;;;;;;;19.10;99.90;;;;;;5075937;28;20073;-86
2023/07/14 08:37:24;;;;;;;;;;;19.30;99.90;;;;;;5075495;28;20418;-86
2023/07/14 08:39:52;;;;;;;;;;;19.30;99.90;;;;;;5076108;28;19936;-86
2023/07/14 08:42:41;;;;;;;;;;;19.40;99.90;;;;;;5108228;28;20218;-86
2023/07/14 08:45:14;;;;;;;;;;;19.40;99.90;;;;;;5064524;28;20305;-86
2023/07/14 08:47:56;;;;;;;;;;;19.40;99.90;;;;;;5120662;27;19924;-85
2023/07/14 08:50:24;;;;;;;;;;;19.50;99.90;;;;;;5109289;28;19928;-87
2023/07/14 08:52:52;;;;;;;;;;;19.60;99.90;;;;;;5075316;28;19928;-86
2023/07/14 08:55:20;;;;;;;;;;;19.60;99.90;;;;;;5091965;28;19924;-85
2023/07/14 08:57:48;;;;;;;;;;;19.80;99.90;;;;;;5074808;28;19924;-86
2023/07/14 09:00:24;;;;;;;;;;;19.90;99.90;;;;;;5092232;28;19928;-86
2023/07/14 09:03:03;;;;;;;;;;;20.10;99.90;;;;;;5092205;28;20007;-86
2023/07/14 09:05:30;;;;;;;;;;;20.20;99.90;;;;;;5095283;28;19932;-86
2023/07/14 09:07:55;;;;;;;;;;;20.20;99.90;;;;;;5085567;28;19924;-85
2023/07/14 09:10:27;;;;;;;;;;;20.10;99.90;;;;;;5058328;28;19974;-86
2023/07/14 09:13:06;;;;;;;;;;;20.00;99.90;;;;;;5107002;28;19924;-86
2023/07/14 09:15:32;;;;;;;;;;;19.90;99.90;;;;;;5088380;28;19931;-86
2023/07/14 09:18:17;;;;;;;;;;;19.80;99.90;;;;;;5078866;28;20374;-85
2023/07/14 09:20:51;;;;;;;;;;;19.90;99.90;;;;;;5113060;28;19924;-86
2023/07/14 09:23:17;;;;;;;;;;;20.10;99.90;;;;;;5111464;28;19935;-85
2023/07/14 09:25:58;;;;;;;;;;;20.40;99.90;;;;;;5095667;28;19924;-87
2023/07/14 09:28:30;;;;;;;;;;;20.60;99.90;;;;;;5084394;28;20241;-86
2023/07/14 09:30:58;;;;;;;;;;;20.80;99.90;;;;;;5095563;28;19928;-85
2023/07/14 09:33:29;;;;;;;;;;;21.00;99.90;;;;;;5079317;28;19931;-86
2023/07/14 09:35:55;;;;;;;;;;;21.10;99.90;;;;;;5113207;28;20334;-85
2023/07/14 09:38:22;;;;;;;;;;;21.40;99.90;;;;;;5106942;28;19928;-85
2023/07/14 09:40:50;;;;;;;;;;;21.50;99.90;;;;;;5094232;28;19931;-86
2023/07/14 09:43:15;;;;;;;;;;;21.50;99.90;;;;;;5091570;28;20282;-86
2023/07/14 09:45:41;;;;;;;;;;;21.60;99.90;;;;;;5073080;28;20014;-86
2023/07/14 09:48:26;;;;;;;;;;;21.70;99.90;;;;;;5095520;28;19986;-86
2023/07/14 09:50:54;;;;;;;;;;;21.90;99.90;;;;;;5112585;28;19928;-86
2023/07/14 09:53:20;;;;;;;;;;;22.00;99.90;;;;;;5079068;28;20011;-86
2023/07/14 09:55:52;;;;;;;;;;;22.10;99.90;;;;;;5080813;28;20015;-88
2023/07/14 09:58:23;;;;;;;;;;;22.20;99.90;;;;;;5095169;28;20422;-86
2023/07/14 10:00:49;;;;;;;;;;;22.40;99.90;;;;;;5095309;28;19959;-86
2023/07/14 10:03:16;;;;;;;;;;;22.60;99.90;;;;;;5086619;28;19924;-86
2023/07/14 10:05:44;;;;;;;;;;;22.70;99.90;;;;;;5087129;28;19924;-86
2023/07/14 10:08:22;;;;;;;;;;;22.90;99.90;;;;;;5112458;28;19974;-86
2023/07/14 10:10:47;;;;;;;;;;;23.00;99.90;;;;;;5111669;28;19924;-87
2023/07/14 10:13:19;;;;;;;;;;;23.10;99.90;;;;;;5095178;28;19970;-85
2023/07/14 10:16:04;;;;;;;;;;;23.10;99.90;;;;;;5079350;28;19928;-86
2023/07/14 10:18:30;;;;;;;;;;;23.00;99.90;;;;;;5113394;28;19912;-86
2023/07/14 10:21:01;;;;;;;;;;;22.90;99.90;;;;;;5109525;28;19931;-85
2023/07/14 10:23:27;;;;;;;;;;;22.60;99.90;;;;;;5095207;28;19954;-88
2023/07/14 10:25:54;;;;;;;;;;;22.50;99.90;;;;;;5103077;28;19998;-86
2023/07/14 10:28:27;;;;;;;;;;;22.30;99.90;;;;;;5073421;28;19924;-86
2023/07/14 10:30:57;;;;;;;;;;;22.00;99.90;;;;;;5126220;28;20015;-86
2023/07/14 10:33:29;;;;;;;;;;;21.90;99.90;;;;;;5110250;28;20427;-87
2023/07/14 10:36:21;;;;;;;;;;;22.00;99.90;;;;;;5105936;28;19967;-85
2023/07/14 10:39:07;;;;;;;;;;;22.20;99.90;;;;;;5076537;28;19935;-85
2023/07/14 10:41:33;;;;;;;;;;;22.50;99.90;;;;;;5098944;28;19925;-86
2023/07/14 10:44:03;;;;;;;;;;;22.70;99.90;;;;;;5085340;28;20279;-86
2023/07/14 10:46:35;;;;;;;;;;;22.90;99.90;;;;;;5093822;28;20351;-86
2023/07/14 10:49:11;;;;;;;;;;;23.00;99.90;;;;;;5077752;28;19947;-86
2023/07/14 10:51:36;;;;;;;;;;;22.90;99.90;;;;;;5094381;28;19928;-85
2023/07/14 10:54:05;;;;;;;;;;;22.70;99.90;;;;;;5077917;28;20323;-86
2023/07/14 10:56:41;;;;;;;;;;;22.50;99.90;;;;;;5093655;28;19931;-86
2023/07/14 10:59:15;;;;;;;;;;;22.60;99.90;;;;;;5061307;28;19924;-86
2023/07/14 11:01:49;;;;;;;;;;;22.80;99.90;;;;;;5094499;28;19924;-86
2023/07/14 11:04:15;;;;;;;;;;;23.00;99.90;;;;;;5077342;28;19924;-87
2023/07/14 11:06:42;;;;;;;;;;;23.20;99.90;;;;;;5077477;28;19927;-86
2023/07/14 11:09:10;;;;;;;;;;;23.30;99.90;;;;;;5111489;28;19931;-86
2023/07/14 11:12:00;;;;;;;;;;;23.30;99.90;;;;;;5110216;28;19924;-87
2023/07/14 11:14:26;;;;;;;;;;;23.20;99.90;;;;;;5078010;28;19932;-86
2023/07/14 11:16:57;;;;;;;;;;;22.90;99.90;;;;;;5111107;28;19928;-87
2023/07/14 11:19:27;;;;;;;;;;;23.00;99.90;;;;;;5093688;28;19924;-87
2023/07/14 11:22:03;;;;;;;;;;;23.00;99.90;;;;;;5094196;28;19963;-86
2023/07/14 11:24:41;;;;;;;;;;;22.90;99.50;;;;;;5107584;28;19931;-87
2023/07/14 11:27:22;;;;;;;;;;;23.00;99.30;;;;;;5090296;28;19977;-85
2023/07/14 11:29:52;;;;;;;;;;;22.60;99.80;;;;;;5093960;28;19924;-86
2023/07/14 11:32:20;;;;;;;;;;;22.30;99.00;;;;;;5094116;28;19924;-85
2023/07/14 11:35:06;;;;;;;;;;;22.30;99.00;;;;;;5073634;28;19938;-87
2023/07/14 11:37:36;;;;;;;;;;;22.30;99.50;;;;;;5075001;28;20299;-86
2023/07/14 11:40:09;;;;;;;;;;;22.50;99.90;;;;;;5076830;28;20371;-86
2023/07/14 11:42:36;;;;;;;;;;;22.60;99.90;;;;;;5092725;28;19977;-86
2023/07/14 11:45:04;;;;;;;;;;;22.70;98.10;;;;;;5093626;28;19939;-85
2023/07/14 11:47:38;;;;;;;;;;;22.90;99.90;;;;;;5110504;28;19935;-87
2023/07/14 11:50:24;;;;;;;;;;;22.90;98.40;;;;;;5096804;28;19924;-87
2023/07/14 11:53:05;;;;;;;;;;;22.90;98.60;;;;;;5075093;28;19932;-86
2023/07/14 11:55:31;;;;;;;;;;;23.00;98.80;;;;;;5105511;28;19963;-86
2023/07/14 11:58:20;;;;;;;;;;;23.10;99.20;;;;;;5126504;27;19928;-85
2023/07/14 12:01:06;;;;;;;;;;;23.20;97.80;;;;;;5062144;28;20279;-85
2023/07/14 12:03:35;;;;;;;;;;;23.20;98.30;;;;;;5062315;28;19939;-86
2023/07/14 12:06:20;;;;;;;;;;;23.00;98.40;;;;;;5092488;28;20395;-88
2023/07/14 12:09:00;;;;;;;;;;;23.40;99.90;;;;;;5093153;28;19942;-86
2023/07/14 12:11:27;;;;;;;;;;;23.20;99.80;;;;;;5091838;28;19971;-86
2023/07/14 12:13:53;;;;;;;;;;;23.10;99.90;;;;;;5076102;28;19932;-86
2023/07/14 12:16:24;;;;;;;;;;;22.90;99.40;;;;;;5107827;28;19924;-86
2023/07/14 12:18:58;;;;;;;;;;;22.70;98.60;;;;;;5074740;28;20261;-86
2023/07/14 12:21:27;;;;;;;;;;;22.50;99.10;;;;;;5092622;28;19931;-86
2023/07/14 12:23:54;;;;;;;;;;;22.40;99.70;;;;;;5126906;27;19935;-87
2023/07/14 12:26:28;;;;;;;;;;;22.50;99.90;;;;;;5091735;28;19925;-86
2023/07/14 12:28:54;;;;;;;;;;;22.60;99.60;;;;;;5076495;28;20024;-86
2023/07/14 12:31:20;;;;;;;;;;;22.70;99.30;;;;;;5110369;28;19990;-86
2023/07/14 12:33:46;;;;;;;;;;;22.80;99.10;;;;;;5093308;28;19931;-86
2023/07/14 12:36:19;;;;;;;;;;;23.00;99.40;;;;;;5094555;28;19947;-86
2023/07/14 12:38:49;;;;;;;;;;;23.10;98.50;;;;;;5095214;28;20011;-86
2023/07/14 12:41:17;;;;;;;;;;;23.20;99.50;;;;;;5075655;28;19990;-86
2023/07/14 12:43:48;;;;;;;;;;;23.30;99.00;;;;;;5076121;28;19931;-86
2023/07/14 12:46:14;;;;;;;;;;;23.50;99.50;;;;;;5110171;28;19969;-86
2023/07/14 12:48:40;;;;;;;;;;;23.40;98.80;;;;;;5075414;28;19932;-86
2023/07/14 12:51:13;;;;;;;;;;;23.40;98.60;;;;;;5075929;28;19946;-85
2023/07/14 12:53:40;;;;;;;;;;;23.40;99.50;;;;;;5092489;28;20364;-85
2023/07/14 12:56:10;;;;;;;;;;;23.40;99.60;;;;;;5075128;28;19982;-87
2023/07/14 12:58:35;;;;;;;;;;;23.40;99.00;;;;;;5092581;28;19931;-86
2023/07/14 13:01:03;;;;;;;;;;;23.40;98.50;;;;;;5075181;28;19928;-87
2023/07/14 13:03:33;;;;;;;;;;;23.30;98.70;;;;;;5092298;28;19950;-87
2023/07/14 13:05:59;;;;;;;;;;;23.30;98.60;;;;;;5092210;28;20015;-86
2023/07/14 13:08:27;;;;;;;;;;;23.30;98.40;;;;;;5100267;28;19990;-87
2023/07/14 13:10:53;;;;;;;;;;;23.10;99.10;;;;;;5074539;28;20019;-86
2023/07/14 13:13:25;;;;;;;;;;;23.00;98.40;;;;;;5075227;28;19935;-86
2023/07/14 13:16:02;;;;;;;;;;;22.80;98.90;;;;;;5092311;28;19927;-87
2023/07/14 13:18:30;;;;;;;;;;;22.60;97.60;;;;;;5109049;28;19969;-88
2023/07/14 13:20:57;;;;;;;;;;;22.60;98.10;;;;;;5092214;28;19924;-86
2023/07/14 13:23:24;;;;;;;;;;;22.60;99.90;;;;;;5075446;28;19975;-87
2023/07/14 13:25:51;;;;;;;;;;;22.60;99.60;;;;;;5091508;28;19924;-87
2023/07/14 13:28:37;;;;;;;;;;;22.70;99.50;;;;;;5086246;28;19978;-87
2023/07/14 13:31:05;;;;;;;;;;;22.80;98.80;;;;;;5079735;28;19928;-91
2023/07/14 13:33:31;;;;;;;;;;;23.00;99.50;;;;;;5115581;28;19987;-87
2023/07/14 13:36:04;;;;;;;;;;;23.00;98.60;;;;;;5133359;28;19946;-89
2023/07/14 13:38:30;;;;;;;;;;;23.00;99.80;;;;;;5109844;28;19935;-86
2023/07/14 13:41:02;;;;;;;;;;;23.00;98.30;;;;;;5113989;28;19924;-85
2023/07/14 13:43:27;;;;;;;;;;;23.10;99.80;;;;;;5128235;28;19950;-86
2023/07/14 13:46:06;;;;;;;;;;;23.20;99.60;;;;;;5126070;28;19924;-86
2023/07/14 13:48:33;;;;;;;;;;;23.30;97.40;;;;;;5092488;28;19974;-86
2023/07/14 13:50:59;;;;;;;;;;;23.40;98.80;;;;;;5086496;28;19924;-86
2023/07/14 13:53:25;;;;;;;;;;;23.50;97.80;;;;;;5091953;28;19976;-86
2023/07/14 13:55:51;;;;;;;;;;;23.50;98.20;;;;;;5074840;28;20423;-88
2023/07/14 13:58:16;;;;;;;;;;;23.50;98.00;;;;;;5091773;28;19932;-86
2023/07/14 14:00:43;;;;;;;;;;;23.40;96.60;;;;;;5094250;28;19982;-88
2023/07/14 14:03:10;;;;;;;;;;;23.30;98.60;;;;;;5078576;28;19939;-87
2023/07/14 14:05:37;;;;;;;;;;;23.20;97.50;;;;;;5078436;28;19931;-87
2023/07/14 14:08:04;;;;;;;;;;;23.20;97.70;;;;;;5112326;28;20003;-86
2023/07/14 14:10:30;;;;;;;;;;;23.30;98.50;;;;;;5078512;28;19928;-86
2023/07/14 14:13:06;;;;;;;;;;;23.40;98.50;;;;;;5095291;28;19924;-86
2023/07/14 14:15:42;;;;;;;;;;;23.60;97.90;;;;;;5095420;28;19924;-86
2023/07/14 14:18:17;;;;;;;;;;;23.70;98.00;;;;;;5094750;28;19924;-86
2023/07/14 14:20:42;;;;;;;;;;;23.80;97.80;;;;;;5098259;28;20010;-87
2023/07/14 14:23:14;;;;;;;;;;;23.90;97.80;;;;;;5108998;28;20029;-85
2023/07/14 14:25:40;;;;;;;;;;;24.00;97.50;;;;;;5094952;28;19924;-86